Time;durP1;ratioP1;P1;durP2;ratioP2;P2;SDS_P1;SDS_P2;PMS_P1;PMS_P2;Temp;Humidity;BMP_temperature;BMP_pressure;BME280_temperature;BME280_humidity;BME280_pressure;Samples;Min_cycle;Max_cycle;Signal;HPM_P1;HPM_P2
2023/09/08 00:00:30;;;;;;;4.68;2.33;;;23.80;56.70;;;;;;2521428;54;21087;-66
2023/09/08 00:02:56;;;;;;;4.18;2.60;;;23.80;56.80;;;;;;2523045;54;21033;-68
2023/09/08 00:05:23;;;;;;;4.30;2.72;;;23.80;56.90;;;;;;2520893;54;21383;-68
2023/09/08 00:07:49;;;;;;;4.93;2.80;;;23.70;56.80;;;;;;2520849;54;21009;-68
2023/09/08 00:10:16;;;;;;;3.90;2.40;;;23.70;56.90;;;;;;2287293;55;20976;-67
2023/09/08 00:12:42;;;;;;;3.47;2.35;;;23.70;56.90;;;;;;2286832;55;21009;-67
2023/09/08 00:15:09;;;;;;;4.15;2.50;;;23.70;57.00;;;;;;2286558;55;20982;-69
2023/09/08 00:17:36;;;;;;;4.20;2.80;;;23.60;56.90;;;;;;2286450;55;21027;-70
2023/09/08 00:20:08;;;;;;;6.07;2.50;;;23.60;57.00;;;;;;2286462;55;21045;-66
2023/09/08 00:22:34;;;;;;;4.20;2.60;;;23.60;57.10;;;;;;2286985;55;21029;-67
2023/09/08 00:25:01;;;;;;;4.15;2.62;;;23.60;57.00;;;;;;2287387;55;20973;-68
2023/09/08 00:27:27;;;;;;;4.05;2.67;;;23.60;57.10;;;;;;2520627;54;20931;-66
2023/09/08 00:29:54;;;;;;;6.18;2.95;;;23.60;57.10;;;;;;2286212;55;20997;-67
2023/09/08 00:32:20;;;;;;;4.87;3.10;;;23.60;57.20;;;;;;2520729;54;21029;-68
2023/09/08 00:34:46;;;;;;;4.65;2.97;;;23.50;57.20;;;;;;2286934;55;20977;-68
2023/09/08 00:37:14;;;;;;;3.83;2.70;;;23.50;57.20;;;;;;2286731;55;21521;-66
2023/09/08 00:39:41;;;;;;;4.30;2.80;;;23.50;57.20;;;;;;2520936;54;20962;-68
2023/09/08 00:42:07;;;;;;;4.15;2.80;;;23.50;57.20;;;;;;2521300;54;20982;-67
2023/09/08 00:44:34;;;;;;;4.32;2.58;;;23.50;57.20;;;;;;2520382;54;21246;-67
2023/09/08 00:47:01;;;;;;;4.70;2.75;;;23.40;57.20;;;;;;2521249;54;20988;-67
2023/09/08 00:49:31;;;;;;;4.60;2.92;;;23.40;57.20;;;;;;2287852;55;21470;-69
2023/09/08 00:51:58;;;;;;;4.30;2.40;;;23.40;57.30;;;;;;2286822;55;20989;-70
2023/09/08 00:54:25;;;;;;;4.37;2.70;;;23.40;57.20;;;;;;2286519;55;21013;-67
2023/09/08 00:56:55;;;;;;;4.10;2.47;;;23.40;57.40;;;;;;2284102;55;21030;-68
2023/09/08 00:59:21;;;;;;;3.80;2.33;;;23.40;57.40;;;;;;2520588;54;20922;-67
2023/09/08 01:01:50;;;;;;;4.45;3.12;;;23.30;57.30;;;;;;2519931;54;21685;-67
2023/09/08 01:04:17;;;;;;;4.07;2.90;;;23.30;57.30;;;;;;2286857;55;20942;-67
2023/09/08 01:06:44;;;;;;;4.57;2.70;;;23.10;57.20;;;;;;2286730;55;20977;-67
2023/09/08 01:09:11;;;;;;;4.10;2.90;;;23.20;57.30;;;;;;2287472;55;20970;-68
2023/09/08 01:11:37;;;;;;;5.72;3.67;;;23.20;57.40;;;;;;2287026;55;21034;-66
2023/09/08 01:14:04;;;;;;;9.07;3.78;;;23.20;57.60;;;;;;2286456;55;21002;-67
2023/09/08 01:16:33;;;;;;;5.95;3.20;;;23.20;57.80;;;;;;2286143;55;20938;-68
2023/09/08 01:19:00;;;;;;;4.50;2.95;;;23.10;57.80;;;;;;2286223;55;21037;-67
2023/09/08 01:21:57;;;;;;;4.15;2.75;;;23.10;57.70;;;;;;2286247;55;21459;-70
2023/09/08 01:26:04;;;;;;;4.75;2.60;;;23.10;57.90;;;;;;2520403;54;20934;-68
2023/09/08 01:28:31;;;;;;;3.30;2.30;;;23.10;57.90;;;;;;2286308;55;21029;-68
2023/09/08 01:30:58;;;;;;;3.62;2.50;;;23.10;57.60;;;;;;2520460;54;20922;-66
2023/09/08 01:33:24;;;;;;;5.43;2.65;;;23.00;57.50;;;;;;2286494;55;21043;-68
2023/09/08 01:35:51;;;;;;;4.35;2.80;;;23.00;57.60;;;;;;2520338;54;21077;-67
2023/09/08 01:38:21;;;;;;;4.95;2.60;;;23.00;57.60;;;;;;2520177;54;21017;-67
2023/09/08 01:40:47;;;;;;;4.22;2.72;;;23.00;57.70;;;;;;2520419;54;21712;-68
2023/09/08 01:43:13;;;;;;;6.43;3.08;;;22.90;57.60;;;;;;2519777;54;20930;-68
2023/09/08 01:45:40;;;;;;;4.35;2.90;;;22.90;57.70;;;;;;2520620;54;20961;-67
2023/09/08 01:48:06;;;;;;;4.50;2.90;;;22.90;57.80;;;;;;2520238;54;21363;-68
2023/09/08 01:50:33;;;;;;;5.05;3.12;;;22.80;57.70;;;;;;2520500;54;20918;-67
2023/09/08 01:53:01;;;;;;;4.32;2.78;;;22.80;57.80;;;;;;2521073;54;20986;-68
2023/09/08 01:55:28;;;;;;;4.50;2.45;;;22.80;57.80;;;;;;2286730;55;20959;-67
2023/09/08 01:57:54;;;;;;;4.75;2.20;;;22.80;57.80;;;;;;2520870;54;21088;-69
2023/09/08 02:00:22;;;;;;;4.57;2.85;;;22.80;57.80;;;;;;2520571;54;20950;-68
2023/09/08 02:02:48;;;;;;;4.47;2.60;;;22.80;57.90;;;;;;2520746;54;20965;-70
2023/09/08 02:05:15;;;;;;;4.85;2.80;;;22.80;57.90;;;;;;2286487;55;20986;-68
2023/09/08 02:07:42;;;;;;;5.12;2.85;;;22.70;57.90;;;;;;2286420;55;21041;-69
2023/09/08 02:10:10;;;;;;;4.97;2.92;;;22.70;57.80;;;;;;2286884;55;20921;-66
2023/09/08 02:12:37;;;;;;;4.65;2.92;;;22.70;57.90;;;;;;2286460;55;21504;-68
2023/09/08 02:15:04;;;;;;;4.70;3.30;;;22.70;57.90;;;;;;2286529;55;20933;-67
2023/09/08 02:17:31;;;;;;;4.28;3.08;;;22.60;57.90;;;;;;2520462;54;21025;-67
2023/09/08 02:19:58;;;;;;;4.12;2.75;;;22.60;58.00;;;;;;2287133;55;21895;-69
2023/09/08 02:22:24;;;;;;;4.35;2.80;;;22.60;58.00;;;;;;2520703;54;21459;-66
2023/09/08 02:24:56;;;;;;;4.70;2.70;;;22.60;58.10;;;;;;2520741;54;20998;-67
2023/09/08 02:27:22;;;;;;;3.90;2.62;;;22.60;58.10;;;;;;2286760;55;21002;-68
2023/09/08 02:29:51;;;;;;;5.15;2.97;;;22.60;58.00;;;;;;2519888;54;20977;-68
2023/09/08 02:32:19;;;;;;;4.68;2.70;;;22.50;58.10;;;;;;2522816;54;20991;-67
2023/09/08 02:34:48;;;;;;;3.90;2.60;;;22.50;58.00;;;;;;2286455;55;22070;-67
2023/09/08 02:37:14;;;;;;;5.50;2.62;;;22.50;58.00;;;;;;2286872;55;21013;-68
2023/09/08 02:39:41;;;;;;;6.12;3.20;;;22.50;58.00;;;;;;2287217;55;20957;-67
2023/09/08 02:42:07;;;;;;;4.45;2.97;;;22.50;58.10;;;;;;2292538;55;20973;-68
2023/09/08 02:44:33;;;;;;;4.12;2.87;;;22.40;58.00;;;;;;2286534;55;20933;-67
2023/09/08 02:47:00;;;;;;;4.65;3.12;;;22.40;58.20;;;;;;2520992;54;20977;-67
2023/09/08 02:49:29;;;;;;;5.78;3.15;;;22.40;58.30;;;;;;2286891;55;21041;-67
2023/09/08 02:51:55;;;;;;;4.65;3.05;;;22.40;58.40;;;;;;2520616;54;21530;-68
2023/09/08 02:54:22;;;;;;;3.83;2.85;;;22.40;58.30;;;;;;2520870;54;20960;-68
2023/09/08 02:56:48;;;;;;;4.55;2.83;;;22.30;58.20;;;;;;2286203;55;21789;-68
2023/09/08 02:59:15;;;;;;;3.80;2.75;;;22.30;58.30;;;;;;2286604;55;21036;-68
2023/09/08 03:01:41;;;;;;;5.75;3.00;;;22.30;58.40;;;;;;2286815;55;20938;-68
2023/09/08 03:04:08;;;;;;;4.20;2.90;;;22.30;58.40;;;;;;2519970;54;20977;-70
2023/09/08 03:06:38;;;;;;;5.65;3.35;;;22.30;58.40;;;;;;2287311;55;20965;-67
2023/09/08 03:09:04;;;;;;;5.20;2.92;;;22.30;58.40;;;;;;2520871;54;20929;-68
2023/09/08 03:11:30;;;;;;;5.68;2.70;;;22.30;58.40;;;;;;2286245;55;21042;-66
2023/09/08 03:13:57;;;;;;;4.30;2.80;;;22.30;58.50;;;;;;2520180;54;20958;-67
2023/09/08 03:16:23;;;;;;;5.72;2.85;;;22.20;58.40;;;;;;2521124;54;21027;-66
2023/09/08 03:18:50;;;;;;;3.75;2.55;;;22.20;58.50;;;;;;2519956;54;20922;-69
2023/09/08 03:21:19;;;;;;;6.40;3.10;;;22.20;58.60;;;;;;2287184;55;20961;-67
2023/09/08 03:23:45;;;;;;;3.80;2.70;;;22.20;58.60;;;;;;2287260;55;20997;-68
2023/09/08 03:26:14;;;;;;;4.47;3.00;;;22.20;58.50;;;;;;2288696;55;20950;-66
2023/09/08 03:28:42;;;;;;;4.60;2.78;;;22.20;58.60;;;;;;2521105;54;21011;-67
2023/09/08 03:31:08;;;;;;;4.22;2.70;;;22.20;58.60;;;;;;2287902;55;21001;-68
2023/09/08 03:33:36;;;;;;;3.92;2.65;;;22.20;58.60;;;;;;2521286;54;20961;-66
2023/09/08 03:36:03;;;;;;;4.97;3.37;;;22.10;58.70;;;;;;2288516;55;20933;-68
2023/09/08 03:38:29;;;;;;;7.40;3.08;;;22.10;58.70;;;;;;2287325;55;20977;-67
2023/09/08 03:40:56;;;;;;;4.47;2.75;;;22.10;58.70;;;;;;2524660;54;20992;-67
2023/09/08 03:43:23;;;;;;;6.00;2.53;;;22.10;58.70;;;;;;2293002;55;20943;-67
2023/09/08 03:45:49;;;;;;;4.28;2.60;;;22.10;58.70;;;;;;2521596;54;21435;-68
2023/09/08 03:48:15;;;;;;;4.53;3.17;;;22.10;58.80;;;;;;2521010;54;21029;-67
2023/09/08 03:50:45;;;;;;;4.70;2.72;;;22.10;58.80;;;;;;2287331;55;20950;-68
2023/09/08 03:53:12;;;;;;;5.62;2.80;;;22.10;58.80;;;;;;2520646;54;21002;-70
2023/09/08 03:55:38;;;;;;;4.62;2.97;;;22.00;58.80;;;;;;2286866;55;20997;-68
2023/09/08 03:58:05;;;;;;;5.35;2.72;;;22.00;58.70;;;;;;2521189;54;21056;-66
2023/09/08 04:00:31;;;;;;;4.28;2.65;;;22.00;58.70;;;;;;2287319;55;21869;-66
2023/09/08 04:02:57;;;;;;;4.28;2.65;;;22.00;58.70;;;;;;2287569;55;21061;-67
2023/09/08 04:05:24;;;;;;;3.95;2.33;;;22.00;58.70;;;;;;2286684;55;20954;-67
2023/09/08 04:07:51;;;;;;;5.60;3.03;;;22.00;58.80;;;;;;2286987;55;20949;-66
2023/09/08 04:10:17;;;;;;;4.07;2.72;;;21.90;58.80;;;;;;2286935;55;20957;-66
2023/09/08 04:12:44;;;;;;;4.47;2.70;;;21.90;58.80;;;;;;2520700;54;20958;-67
2023/09/08 04:15:10;;;;;;;4.20;3.00;;;21.90;58.90;;;;;;2521049;54;21780;-68
2023/09/08 04:17:37;;;;;;;4.45;2.90;;;21.90;58.90;;;;;;2519979;54;20946;-68
2023/09/08 04:20:05;;;;;;;4.72;3.08;;;21.90;59.00;;;;;;2286653;55;22060;-68
2023/09/08 04:22:35;;;;;;;4.32;2.78;;;21.90;59.10;;;;;;2292029;55;20944;-68
2023/09/08 04:25:01;;;;;;;3.92;2.78;;;21.90;59.00;;;;;;2521732;54;20942;-67
2023/09/08 04:27:27;;;;;;;4.05;2.75;;;21.90;59.00;;;;;;2522244;54;21030;-68
2023/09/08 04:29:54;;;;;;;4.35;2.92;;;21.90;59.00;;;;;;2520059;54;20941;-67
2023/09/08 04:32:20;;;;;;;3.97;2.78;;;21.80;58.90;;;;;;2285956;55;21321;-67
2023/09/08 04:34:48;;;;;;;4.65;2.83;;;21.80;58.90;;;;;;2520300;54;21760;-66
2023/09/08 04:37:15;;;;;;;3.62;2.47;;;21.80;59.00;;;;;;2521110;54;21055;-67
2023/09/08 04:39:44;;;;;;;5.85;2.80;;;21.80;59.00;;;;;;2521868;54;20973;-67
2023/09/08 04:42:10;;;;;;;4.35;3.12;;;21.80;59.00;;;;;;2286812;55;21017;-68
2023/09/08 04:44:39;;;;;;;4.85;2.80;;;21.80;59.20;;;;;;2519719;54;21790;-66
2023/09/08 04:47:08;;;;;;;5.18;3.00;;;21.70;59.10;;;;;;2286704;55;20997;-67
2023/09/08 04:49:34;;;;;;;5.18;3.05;;;21.70;59.10;;;;;;2286584;55;21017;-67
2023/09/08 04:52:00;;;;;;;4.40;3.17;;;21.70;59.20;;;;;;2520951;54;22247;-67
2023/09/08 04:54:27;;;;;;;4.72;3.12;;;21.70;59.30;;;;;;2286487;55;20985;-66
2023/09/08 04:56:54;;;;;;;5.53;3.20;;;21.80;59.30;;;;;;2520295;54;20989;-69
2023/09/08 04:59:24;;;;;;;4.70;2.92;;;21.70;59.30;;;;;;2286708;55;20990;-67
2023/09/08 05:01:50;;;;;;;5.07;3.00;;;21.70;59.30;;;;;;2520392;54;20942;-67
2023/09/08 05:04:18;;;;;;;5.50;3.08;;;21.70;59.30;;;;;;2286766;55;20950;-67
2023/09/08 05:06:44;;;;;;;5.47;3.47;;;21.70;59.30;;;;;;2520669;54;21018;-68
2023/09/08 05:09:14;;;;;;;4.93;3.20;;;21.70;59.30;;;;;;2286664;55;21483;-68
2023/09/08 05:11:40;;;;;;;5.53;2.87;;;21.70;59.40;;;;;;2286676;55;20983;-66
2023/09/08 05:14:07;;;;;;;4.53;2.75;;;21.60;59.20;;;;;;2287024;55;20961;-67
2023/09/08 05:16:45;;;;;;;4.32;2.92;;;21.60;59.20;;;;;;2520319;54;20949;-67
2023/09/08 05:19:12;;;;;;;4.50;3.20;;;21.60;59.20;;;;;;2519814;54;20969;-67
2023/09/08 05:21:40;;;;;;;4.20;2.95;;;21.60;59.30;;;;;;2519954;54;21004;-66
2023/09/08 05:24:06;;;;;;;5.45;2.90;;;21.60;59.30;;;;;;2286137;55;21100;-65
2023/09/08 05:26:33;;;;;;;4.65;2.80;;;21.60;59.30;;;;;;2520084;54;20930;-67
2023/09/08 05:28:59;;;;;;;4.62;2.95;;;21.60;59.30;;;;;;2520797;54;21022;-70
2023/09/08 05:31:26;;;;;;;5.43;3.10;;;21.60;59.40;;;;;;2286782;55;20957;-69
2023/09/08 05:33:52;;;;;;;6.37;3.22;;;21.60;59.40;;;;;;2522006;54;20975;-66
2023/09/08 05:36:19;;;;;;;4.65;3.25;;;21.50;59.40;;;;;;2521399;54;21006;-70
2023/09/08 05:38:45;;;;;;;4.53;2.92;;;21.50;59.50;;;;;;2520441;54;20915;-68
2023/09/08 05:41:12;;;;;;;5.15;3.15;;;21.50;59.60;;;;;;2519379;54;20977;-67
2023/09/08 05:43:39;;;;;;;4.07;3.05;;;21.50;59.60;;;;;;2522648;54;20991;-70
2023/09/08 05:46:05;;;;;;;4.37;3.50;;;21.50;59.60;;;;;;2521184;54;20945;-68
2023/09/08 05:48:31;;;;;;;5.53;3.30;;;21.50;59.70;;;;;;2519630;54;20977;-70
2023/09/08 05:50:58;;;;;;;4.50;3.22;;;21.50;59.80;;;;;;2291461;55;21591;-69
2023/09/08 05:53:24;;;;;;;4.95;3.25;;;21.50;59.90;;;;;;2287533;55;21466;-66
2023/09/08 05:55:52;;;;;;;4.68;3.15;;;21.50;59.90;;;;;;2519196;54;21017;-69
2023/09/08 05:58:18;;;;;;;4.75;3.37;;;21.50;60.00;;;;;;2520986;54;20964;-68
2023/09/08 06:00:45;;;;;;;4.47;3.12;;;21.50;60.00;;;;;;2291922;55;21042;-66
2023/09/08 06:03:11;;;;;;;5.18;3.37;;;21.60;60.20;;;;;;2520984;54;21045;-68
2023/09/08 06:05:39;;;;;;;4.60;3.30;;;21.50;60.00;;;;;;2286666;55;21109;-69
2023/09/08 06:08:05;;;;;;;5.62;3.12;;;21.70;60.30;;;;;;2287297;55;20969;-66
2023/09/08 06:10:33;;;;;;;4.00;2.92;;;21.60;60.20;;;;;;2290847;55;20986;-67
2023/09/08 06:13:01;;;;;;;4.00;2.90;;;21.60;60.20;;;;;;2287807;55;20938;-67
2023/09/08 06:15:27;;;;;;;4.47;3.37;;;21.60;60.20;;;;;;2520630;54;20962;-67
2023/09/08 06:17:54;;;;;;;5.70;3.60;;;21.60;60.30;;;;;;2287186;55;20953;-67
2023/09/08 06:20:21;;;;;;;4.32;3.15;;;21.60;60.40;;;;;;2522415;54;21312;-67
2023/09/08 06:22:47;;;;;;;5.62;3.55;;;21.70;60.60;;;;;;2286142;55;21088;-69
2023/09/08 06:25:14;;;;;;;4.78;3.22;;;21.70;60.70;;;;;;2286723;55;20954;-68
2023/09/08 06:27:40;;;;;;;4.80;3.30;;;21.70;60.90;;;;;;2291106;55;21055;-68
2023/09/08 06:30:09;;;;;;;5.07;3.50;;;21.70;61.00;;;;;;2286432;55;21002;-68
2023/09/08 06:32:36;;;;;;;4.85;3.72;;;21.80;61.20;;;;;;2520523;54;20922;-66
2023/09/08 06:35:03;;;;;;;5.00;3.72;;;21.80;61.30;;;;;;2287518;55;20941;-67
2023/09/08 06:37:29;;;;;;;5.15;4.03;;;21.80;61.40;;;;;;2286997;55;21042;-67
2023/09/08 06:39:55;;;;;;;5.82;4.15;;;21.90;61.60;;;;;;2523663;54;21006;-70
2023/09/08 06:42:22;;;;;;;4.93;3.55;;;21.90;61.70;;;;;;2522059;54;21091;-67
2023/09/08 06:44:48;;;;;;;5.55;3.28;;;22.00;61.90;;;;;;2522537;54;21869;-69
2023/09/08 06:47:17;;;;;;;5.05;3.30;;;22.00;61.90;;;;;;2299746;55;20981;-68
2023/09/08 06:49:43;;;;;;;6.03;3.58;;;22.10;62.20;;;;;;2522200;54;21399;-67
2023/09/08 06:52:10;;;;;;;7.00;4.05;;;22.10;62.20;;;;;;2521374;54;21022;-67
2023/09/08 06:54:36;;;;;;;6.45;4.15;;;22.20;62.50;;;;;;2519997;54;21410;-68
2023/09/08 06:57:09;;;;;;;4.75;3.37;;;22.30;62.70;;;;;;2287237;55;21022;-70
2023/09/08 06:59:36;;;;;;;4.97;3.47;;;22.40;63.10;;;;;;2524323;54;20980;-69
2023/09/08 07:02:04;;;;;;;5.22;3.33;;;22.40;62.80;;;;;;2288203;55;20953;-68
2023/09/08 07:04:31;;;;;;;4.25;3.05;;;22.50;63.00;;;;;;2295433;55;20967;-66
2023/09/08 07:06:57;;;;;;;4.90;3.35;;;22.60;63.10;;;;;;2288397;55;20938;-68
2023/09/08 07:09:24;;;;;;;4.80;3.35;;;22.70;63.10;;;;;;2520715;54;21899;-67
2023/09/08 07:11:50;;;;;;;4.75;3.22;;;22.80;63.20;;;;;;2519460;54;20954;-66
2023/09/08 07:14:17;;;;;;;4.57;3.00;;;22.80;63.20;;;;;;2286297;55;20961;-67
2023/09/08 07:16:43;;;;;;;6.57;3.90;;;22.90;63.30;;;;;;2520133;54;20986;-68
2023/09/08 07:19:10;;;;;;;4.82;3.83;;;23.00;63.40;;;;;;2286903;55;20965;-67
2023/09/08 07:21:37;;;;;;;6.07;3.80;;;23.10;63.40;;;;;;2286715;55;20926;-68
2023/09/08 07:24:03;;;;;;;5.25;3.78;;;23.20;63.50;;;;;;2287545;55;20957;-66
2023/09/08 07:26:30;;;;;;;4.65;3.25;;;23.20;63.40;;;;;;2521312;54;20914;-67
2023/09/08 07:28:59;;;;;;;4.93;3.28;;;23.40;63.50;;;;;;2287396;55;20922;-68
2023/09/08 07:31:34;;;;;;;5.35;3.83;;;23.40;63.50;;;;;;2286794;55;20926;-71
2023/09/08 07:34:00;;;;;;;6.43;3.72;;;23.50;63.70;;;;;;2520580;54;20950;-68
2023/09/08 07:36:27;;;;;;;5.43;3.80;;;23.60;63.50;;;;;;2521871;54;20940;-69
2023/09/08 07:38:56;;;;;;;6.10;4.43;;;23.70;63.40;;;;;;2286386;55;21799;-66
2023/09/08 07:41:22;;;;;;;6.78;3.83;;;23.70;63.30;;;;;;2520393;54;21788;-70
2023/09/08 07:43:50;;;;;;;5.30;3.78;;;23.80;63.40;;;;;;2287913;55;20998;-68
2023/09/08 07:46:17;;;;;;;5.90;3.95;;;23.90;63.40;;;;;;2520898;54;21021;-68
2023/09/08 07:48:43;;;;;;;6.70;4.75;;;24.00;63.40;;;;;;2286809;55;20934;-68
2023/09/08 07:51:10;;;;;;;6.18;4.87;;;24.10;63.50;;;;;;2286718;55;20949;-68
2023/09/08 07:53:36;;;;;;;6.03;4.62;;;24.10;63.50;;;;;;2286552;55;21826;-70
2023/09/08 07:56:04;;;;;;;6.70;4.35;;;24.20;63.60;;;;;;2292281;55;21131;-68
2023/09/08 07:58:30;;;;;;;4.75;3.70;;;24.30;63.60;;;;;;2287512;55;20950;-69
2023/09/08 08:00:59;;;;;;;5.45;3.92;;;24.30;63.40;;;;;;2286875;55;21002;-68
2023/09/08 08:03:26;;;;;;;5.65;4.50;;;24.40;63.50;;;;;;2286826;55;22141;-69
2023/09/08 08:05:54;;;;;;;5.97;4.32;;;24.50;63.40;;;;;;2287072;55;20945;-70
2023/09/08 08:08:22;;;;;;;5.82;4.25;;;24.50;63.30;;;;;;2286621;55;21002;-70
2023/09/08 08:10:49;;;;;;;5.70;4.05;;;24.70;63.40;;;;;;2286805;55;21013;-70
2023/09/08 08:13:15;;;;;;;5.62;4.12;;;24.80;63.40;;;;;;2520487;54;20981;-68
2023/09/08 08:15:43;;;;;;;5.45;4.43;;;24.80;63.30;;;;;;2520807;54;20914;-68
2023/09/08 08:18:09;;;;;;;7.97;4.37;;;24.90;63.40;;;;;;2286789;55;21562;-71
2023/09/08 08:20:36;;;;;;;5.72;4.25;;;25.00;63.30;;;;;;2520741;54;20946;-67
2023/09/08 08:23:05;;;;;;;6.20;4.37;;;25.00;63.20;;;;;;2521202;54;20958;-68
2023/09/08 08:25:32;;;;;;;5.75;4.18;;;25.10;63.30;;;;;;2520778;54;20918;-68
2023/09/08 08:27:59;;;;;;;5.35;3.83;;;25.20;63.30;;;;;;2286350;55;20929;-68
2023/09/08 08:30:28;;;;;;;5.70;4.32;;;25.20;63.10;;;;;;2287001;55;21009;-69
2023/09/08 08:32:55;;;;;;;6.30;4.75;;;25.40;63.50;;;;;;2287049;55;20926;-71
2023/09/08 08:35:21;;;;;;;6.68;4.30;;;25.40;63.10;;;;;;2520218;54;20973;-68
2023/09/08 08:37:47;;;;;;;5.28;4.00;;;25.50;63.20;;;;;;2520659;54;21010;-68
2023/09/08 08:40:14;;;;;;;5.60;4.30;;;25.60;63.30;;;;;;2287145;55;20938;-68
2023/09/08 08:42:40;;;;;;;5.47;3.65;;;25.60;63.40;;;;;;2286377;55;21523;-70
2023/09/08 08:45:07;;;;;;;7.45;4.28;;;25.70;63.40;;;;;;2287248;55;20947;-68
2023/09/08 08:47:34;;;;;;;6.20;4.28;;;25.80;63.30;;;;;;2520454;54;21410;-68
2023/09/08 08:50:00;;;;;;;5.90;4.28;;;25.90;63.10;;;;;;2286674;55;21012;-68
2023/09/08 08:52:28;;;;;;;6.32;4.68;;;26.00;63.10;;;;;;2520110;54;20957;-67
2023/09/08 08:54:55;;;;;;;6.12;4.05;;;26.00;63.10;;;;;;2520256;54;21440;-68
2023/09/08 08:57:22;;;;;;;5.62;4.25;;;26.10;63.10;;;;;;2286508;55;20981;-70
2023/09/08 08:59:50;;;;;;;5.87;4.53;;;26.30;63.20;;;;;;2286034;55;20974;-67
2023/09/08 09:02:18;;;;;;;5.85;4.15;;;26.30;63.10;;;;;;2286603;55;21057;-68
2023/09/08 09:04:45;;;;;;;5.82;4.62;;;26.40;63.00;;;;;;2286589;55;21013;-69
2023/09/08 09:07:11;;;;;;;5.20;3.90;;;26.50;63.00;;;;;;2286906;55;21054;-68
2023/09/08 09:09:40;;;;;;;5.60;4.35;;;26.60;62.90;;;;;;2286875;55;20958;-69
2023/09/08 09:12:06;;;;;;;4.82;3.80;;;26.70;62.80;;;;;;2287282;55;20941;-68
2023/09/08 09:14:33;;;;;;;5.05;3.60;;;26.80;62.60;;;;;;2518473;54;20930;-68
2023/09/08 09:17:01;;;;;;;4.82;4.05;;;26.80;62.30;;;;;;2286645;55;21899;-68
2023/09/08 09:19:28;;;;;;;5.47;3.80;;;26.90;62.20;;;;;;2520780;54;21013;-68
2023/09/08 09:21:55;;;;;;;5.90;4.00;;;27.00;62.10;;;;;;2520812;54;20962;-69
2023/09/08 09:24:40;;;;;;;4.82;3.60;;;27.10;62.00;;;;;;2519784;54;21442;-69
2023/09/08 09:27:08;;;;;;;4.90;3.35;;;27.20;61.90;;;;;;2520839;54;20957;-70
2023/09/08 09:29:44;;;;;;;4.70;3.70;;;27.30;62.00;;;;;;2520042;54;20937;-68
2023/09/08 09:32:10;;;;;;;4.90;4.05;;;27.30;61.80;;;;;;2286562;55;21561;-68
2023/09/08 09:34:43;;;;;;;6.93;4.55;;;27.40;61.90;;;;;;2521114;54;20909;-69
2023/09/08 09:37:09;;;;;;;5.50;3.70;;;27.60;62.00;;;;;;2520456;54;20981;-71
2023/09/08 09:39:37;;;;;;;5.05;4.28;;;27.70;61.90;;;;;;2286498;55;21497;-69
2023/09/08 09:42:04;;;;;;;4.75;3.83;;;27.70;61.70;;;;;;2519637;54;20938;-68
2023/09/08 09:44:30;;;;;;;5.78;4.03;;;27.80;61.70;;;;;;2286761;55;21427;-71
2023/09/08 09:46:57;;;;;;;6.10;4.72;;;27.80;61.70;;;;;;2291588;55;21087;-70
2023/09/08 09:49:26;;;;;;;5.10;4.12;;;28.00;61.70;;;;;;2521457;54;20938;-68
2023/09/08 09:51:55;;;;;;;5.10;3.92;;;28.00;61.50;;;;;;2286096;55;21029;-68
2023/09/08 09:54:22;;;;;;;5.20;4.00;;;28.10;61.30;;;;;;2286719;55;21000;-68
2023/09/08 09:56:52;;;;;;;5.00;3.90;;;28.20;61.00;;;;;;2286516;55;20978;-68
2023/09/08 09:59:18;;;;;;;5.65;4.00;;;28.30;60.80;;;;;;2520621;54;21365;-68
2023/09/08 10:01:45;;;;;;;5.32;4.15;;;28.30;60.70;;;;;;2286394;55;21010;-68
2023/09/08 10:04:15;;;;;;;5.07;3.72;;;28.40;60.70;;;;;;2288548;55;20986;-68
2023/09/08 10:06:41;;;;;;;4.93;3.85;;;28.50;60.70;;;;;;2286783;55;20934;-69
2023/09/08 10:09:13;;;;;;;6.15;4.07;;;28.50;60.50;;;;;;2520929;54;20994;-71
2023/09/08 10:11:47;;;;;;;4.62;3.78;;;28.60;60.30;;;;;;2520681;54;20949;-68
2023/09/08 10:14:17;;;;;;;4.87;4.18;;;28.70;60.00;;;;;;2287495;55;20946;-69
2023/09/08 10:16:49;;;;;;;4.70;3.70;;;28.70;60.00;;;;;;2520602;54;20922;-69
2023/09/08 10:19:16;;;;;;;5.47;3.60;;;28.80;59.80;;;;;;2520841;54;20961;-68
2023/09/08 10:21:45;;;;;;;4.20;3.50;;;28.90;59.80;;;;;;2520396;54;20997;-71
2023/09/08 10:24:15;;;;;;;4.70;3.50;;;28.90;59.50;;;;;;2521206;54;21030;-70
2023/09/08 10:26:46;;;;;;;4.95;3.67;;;29.00;59.20;;;;;;2286663;55;21021;-68
2023/09/08 10:29:13;;;;;;;4.97;3.77;;;29.10;59.30;;;;;;2521567;54;20981;-68
2023/09/08 10:31:43;;;;;;;4.65;3.87;;;29.10;59.20;;;;;;2520375;54;20970;-70
2023/09/08 10:34:09;;;;;;;4.93;3.60;;;29.20;59.30;;;;;;2520541;54;21425;-68
2023/09/08 10:36:36;;;;;;;5.60;3.90;;;29.20;59.10;;;;;;2520838;54;20938;-70
2023/09/08 10:39:39;;;;;;;5.35;3.83;;;29.30;59.00;;;;;;2521157;54;21065;-67
2023/09/08 10:42:25;;;;;;;4.62;2.97;;;29.40;58.70;;;;;;2286514;55;21438;-67
2023/09/08 10:45:01;;;;;;;4.25;3.22;;;29.50;58.30;;;;;;2286625;55;20965;-68
2023/09/08 10:47:56;;;;;;;4.10;3.15;;;29.50;58.30;;;;;;2520508;54;21017;-70
2023/09/08 10:50:34;;;;;;;4.03;3.10;;;29.60;58.30;;;;;;2520288;54;21437;-68
2023/09/08 10:53:18;;;;;;;6.03;3.53;;;29.70;58.40;;;;;;2520610;54;20973;-66
2023/09/08 10:55:53;;;;;;;4.20;3.30;;;29.80;58.20;;;;;;2520432;54;20938;-68
2023/09/08 10:58:42;;;;;;;5.10;3.50;;;29.80;58.40;;;;;;2287332;55;21272;-67
2023/09/08 11:01:22;;;;;;;5.10;3.80;;;29.90;57.90;;;;;;2498052;54;20949;-67
2023/09/08 11:03:51;;;;;;;5.78;3.90;;;29.90;57.80;;;;;;2520519;54;20958;-67
2023/09/08 11:06:18;;;;;;;5.10;3.28;;;30.00;58.00;;;;;;2287329;55;20993;-66
2023/09/08 11:08:45;;;;;;;3.97;3.10;;;30.00;57.80;;;;;;2285964;55;20946;-66
2023/09/08 11:11:12;;;;;;;5.35;3.10;;;30.10;57.80;;;;;;2520648;54;20969;-67
2023/09/08 11:13:41;;;;;;;5.40;3.20;;;30.10;57.50;;;;;;2518892;54;21022;-67
2023/09/08 11:16:07;;;;;;;4.70;3.42;;;30.20;57.40;;;;;;2519828;54;21034;-69
2023/09/08 11:18:34;;;;;;;4.78;3.30;;;30.20;57.10;;;;;;2518961;54;20978;-66
2023/09/08 11:21:01;;;;;;;4.97;3.30;;;30.30;57.00;;;;;;2520038;54;21061;-65
2023/09/08 11:23:29;;;;;;;4.65;3.10;;;30.30;56.80;;;;;;2520083;54;21005;-67
2023/09/08 11:25:59;;;;;;;4.57;3.20;;;30.40;56.70;;;;;;2286219;55;20934;-67
2023/09/08 11:28:26;;;;;;;4.47;3.08;;;30.50;56.50;;;;;;2521166;54;21490;-67
2023/09/08 11:30:53;;;;;;;4.07;2.85;;;30.50;56.60;;;;;;2520751;54;21483;-67
2023/09/08 11:33:24;;;;;;;4.20;3.22;;;30.60;56.50;;;;;;2287037;55;20998;-66
2023/09/08 11:35:52;;;;;;;3.70;2.65;;;30.60;56.30;;;;;;2287138;55;20926;-67
2023/09/08 11:38:28;;;;;;;4.45;3.00;;;30.70;56.20;;;;;;2287474;55;21065;-68
2023/09/08 11:40:56;;;;;;;4.05;2.92;;;30.80;55.90;;;;;;2521383;54;20961;-67
2023/09/08 11:43:22;;;;;;;4.07;2.65;;;30.80;56.10;;;;;;2521783;54;20990;-67
2023/09/08 11:45:48;;;;;;;5.85;3.25;;;30.90;56.10;;;;;;2521335;54;21962;-66
2023/09/08 11:48:15;;;;;;;4.70;2.90;;;30.90;55.80;;;;;;2521577;54;21750;-68
2023/09/08 11:50:43;;;;;;;4.95;2.95;;;31.00;55.60;;;;;;2520763;54;20978;-68
2023/09/08 11:53:11;;;;;;;4.60;3.30;;;31.00;55.30;;;;;;2272273;55;21001;-67
2023/09/08 11:55:37;;;;;;;4.82;3.17;;;31.10;55.10;;;;;;2287724;55;20997;-67
2023/09/08 11:58:04;;;;;;;4.50;2.83;;;31.20;55.10;;;;;;2521982;54;21009;-67
2023/09/08 12:00:32;;;;;;;4.20;2.90;;;31.20;54.90;;;;;;2287639;55;21002;-67
2023/09/08 12:03:17;;;;;;;4.22;2.53;;;31.20;54.90;;;;;;2522025;54;20950;-67
2023/09/08 12:05:51;;;;;;;3.87;2.40;;;31.30;54.30;;;;;;2521056;54;21200;-66
2023/09/08 12:08:21;;;;;;;4.03;2.67;;;31.40;54.00;;;;;;2521420;54;20998;-67
2023/09/08 12:10:47;;;;;;;3.55;2.53;;;31.40;54.10;;;;;;2521335;54;21447;-66
2023/09/08 12:13:20;;;;;;;3.53;2.17;;;31.40;53.80;;;;;;2522725;54;21424;-67
2023/09/08 12:15:46;;;;;;;3.67;2.22;;;31.50;53.10;;;;;;2526086;54;21024;-68
2023/09/08 12:18:16;;;;;;;3.40;2.28;;;31.50;53.50;;;;;;2287491;55;20949;-67
2023/09/08 12:20:46;;;;;;;3.83;2.62;;;31.60;53.40;;;;;;2521115;54;21049;-67
2023/09/08 12:23:19;;;;;;;4.47;2.45;;;31.60;53.40;;;;;;2521444;54;21522;-68
2023/09/08 12:25:47;;;;;;;4.10;2.62;;;31.70;53.20;;;;;;2521647;54;20962;-67
2023/09/08 12:28:16;;;;;;;3.78;2.50;;;31.70;53.30;;;;;;2522106;54;21379;-67
2023/09/08 12:30:43;;;;;;;5.00;2.40;;;31.70;53.00;;;;;;2286374;55;21383;-68
2023/09/08 12:33:11;;;;;;;3.92;2.53;;;31.80;52.70;;;;;;2286408;55;21037;-67
2023/09/08 12:35:37;;;;;;;3.70;2.75;;;31.80;52.60;;;;;;2520029;54;20989;-67
2023/09/08 12:38:05;;;;;;;3.55;2.00;;;31.90;52.40;;;;;;2521224;54;20997;-68
2023/09/08 12:40:33;;;;;;;3.50;2.30;;;31.90;52.10;;;;;;2521276;54;20941;-69
2023/09/08 12:43:00;;;;;;;5.35;2.22;;;31.90;51.60;;;;;;2523164;54;21023;-67
2023/09/08 12:45:30;;;;;;;3.28;2.00;;;32.00;51.40;;;;;;2286000;55;20969;-68
2023/09/08 12:47:58;;;;;;;3.35;1.87;;;32.00;51.10;;;;;;2286898;55;20949;-68
2023/09/08 12:50:27;;;;;;;2.65;1.70;;;32.00;50.90;;;;;;2520964;54;20962;-67
2023/09/08 12:52:54;;;;;;;4.18;2.00;;;32.10;50.90;;;;;;2520958;54;20949;-68